createdAt,value
2023-04-20T00:01:13.312Z,1.20
2023-04-20T00:03:40.155Z,1.77
2023-04-20T00:06:07.777Z,1.13
2023-04-20T00:08:34.384Z,1.23
2023-04-20T00:11:01.198Z,1.60
2023-04-20T00:13:27.879Z,1.30
2023-04-20T00:15:54.516Z,1.50
2023-04-20T00:18:21.079Z,1.20
2023-04-20T00:20:47.716Z,1.00
2023-04-20T00:23:14.303Z,1.20
2023-04-20T00:25:40.955Z,1.20
2023-04-20T00:28:07.805Z,1.10
2023-04-20T00:30:34.379Z,1.37
2023-04-20T00:33:01.463Z,1.93
2023-04-20T00:35:28.106Z,1.23
2023-04-20T00:37:54.650Z,1.27
2023-04-20T00:40:21.411Z,1.20
2023-04-20T00:42:48.071Z,1.67
2023-04-20T00:45:14.748Z,1.30
2023-04-20T00:47:41.376Z,0.97
2023-04-20T00:50:08.709Z,1.40
2023-04-20T00:52:35.558Z,1.13
2023-04-20T00:55:03.336Z,1.40
2023-04-20T00:57:31.001Z,1.30
2023-04-20T00:59:57.644Z,1.10
2023-04-20T01:02:24.698Z,1.30
2023-04-20T01:04:51.378Z,1.07
2023-04-20T01:07:17.931Z,1.30
2023-04-20T01:09:44.495Z,1.20
2023-04-20T01:12:11.678Z,1.40
2023-04-20T01:14:38.309Z,1.20
2023-04-20T01:17:05.819Z,1.33
2023-04-20T01:19:33.223Z,1.07
2023-04-20T01:22:00.070Z,1.20
2023-04-20T01:24:27.614Z,1.20
2023-04-20T01:26:54.358Z,1.27
2023-04-20T01:29:20.993Z,0.87
2023-04-20T01:31:47.650Z,1.57
2023-04-20T01:34:15.271Z,1.30
2023-04-20T01:36:41.881Z,0.93
2023-04-20T01:39:08.824Z,1.30
2023-04-20T01:41:35.712Z,1.83
2023-04-20T01:44:02.328Z,1.20
2023-04-20T01:46:28.968Z,1.27
2023-04-20T01:48:55.873Z,1.47
2023-04-20T01:51:22.810Z,1.07
2023-04-20T01:53:49.371Z,1.20
2023-04-20T01:56:16.151Z,1.30
2023-04-20T01:58:42.715Z,1.20
2023-04-20T02:01:09.346Z,1.43
2023-04-20T02:03:36.104Z,1.07
2023-04-20T02:06:02.885Z,1.17
2023-04-20T02:08:29.431Z,1.23
2023-04-20T02:10:55.998Z,0.97
2023-04-20T02:13:22.539Z,1.47
2023-04-20T02:15:49.111Z,1.53
2023-04-20T02:18:16.219Z,1.47
2023-04-20T02:20:44.270Z,1.17
2023-04-20T02:23:11.272Z,1.20
2023-04-20T02:25:38.093Z,1.30
2023-04-20T02:28:05.486Z,1.20
2023-04-20T02:30:32.104Z,0.97
2023-04-20T02:32:59.279Z,1.80
2023-04-20T02:35:26.259Z,1.13
2023-04-20T02:37:52.865Z,1.30
2023-04-20T02:40:19.509Z,1.20
2023-04-20T02:42:46.239Z,1.27
2023-04-20T02:45:12.816Z,1.33
2023-04-20T02:47:39.473Z,1.17
2023-04-20T02:50:07.291Z,1.47
2023-04-20T02:52:34.102Z,1.07
2023-04-20T02:55:00.956Z,1.37
2023-04-20T02:57:27.522Z,1.47
2023-04-20T02:59:54.235Z,1.17
2023-04-20T03:02:20.885Z,1.53
2023-04-20T03:04:47.583Z,1.17
2023-04-20T03:07:16.596Z,1.30
2023-04-20T03:09:43.695Z,1.00
2023-04-20T03:12:10.671Z,1.00
2023-04-20T03:14:37.302Z,1.20
2023-04-20T03:17:04.249Z,1.63
2023-04-20T03:19:30.883Z,1.37
2023-04-20T03:21:57.483Z,1.40
2023-04-20T03:24:24.153Z,1.07
2023-04-20T03:26:50.760Z,1.20
2023-04-20T03:29:17.490Z,1.20
2023-04-20T03:31:44.416Z,0.90
2023-04-20T03:34:11.093Z,1.27
2023-04-20T03:36:37.725Z,0.90
2023-04-20T03:39:04.457Z,1.60
2023-04-20T03:41:31.778Z,1.10
2023-04-20T03:43:58.414Z,1.20
2023-04-20T03:46:25.315Z,1.07
2023-04-20T03:48:52.020Z,1.00
2023-04-20T03:51:18.837Z,1.07
2023-04-20T03:53:45.607Z,1.10
2023-04-20T03:56:12.316Z,1.13
2023-04-20T03:58:39.082Z,1.33
2023-04-20T04:01:09.687Z,0.87
2023-04-20T04:03:36.843Z,1.23
2023-04-20T04:06:04.282Z,1.10
2023-04-20T04:08:32.050Z,1.40
2023-04-20T04:10:59.408Z,2.50
2023-04-20T04:13:26.028Z,1.37
2023-04-20T04:15:52.658Z,0.93
2023-04-20T04:18:20.247Z,1.13
2023-04-20T04:20:46.829Z,1.43
2023-04-20T04:23:13.493Z,1.10
2023-04-20T04:25:42.810Z,1.13
2023-04-20T04:28:09.424Z,0.70
2023-04-20T04:30:36.018Z,1.30
2023-04-20T04:33:04.699Z,1.03
2023-04-20T04:35:33.241Z,0.80
2023-04-20T04:37:59.860Z,1.00
2023-04-20T04:40:26.456Z,1.07
2023-04-20T04:42:53.023Z,1.27
2023-04-20T04:45:19.749Z,1.77
2023-04-20T04:47:46.450Z,1.30
2023-04-20T04:50:13.305Z,1.20
2023-04-20T04:52:39.896Z,1.10
2023-04-20T04:55:09.103Z,1.03
2023-04-20T04:57:36.232Z,0.97
2023-04-20T05:00:04.387Z,1.20
2023-04-20T05:02:31.254Z,1.10
2023-04-20T05:04:58.102Z,1.40
2023-04-20T05:07:24.830Z,1.23
2023-04-20T05:09:51.574Z,1.67
2023-04-20T05:12:19.363Z,2.10
2023-04-20T05:14:46.066Z,1.60
2023-04-20T05:17:12.706Z,1.67
2023-04-20T05:19:39.257Z,1.30
2023-04-20T05:22:06.051Z,1.50
2023-04-20T05:24:32.653Z,1.67
2023-04-20T05:26:59.250Z,1.03
2023-04-20T05:29:25.987Z,1.30
2023-04-20T05:31:52.603Z,1.40
2023-04-20T05:34:19.236Z,1.10
2023-04-20T05:36:46.979Z,1.53
2023-04-20T05:39:13.535Z,1.40
2023-04-20T05:41:40.137Z,1.97
2023-04-20T05:44:06.714Z,1.87
2023-04-20T05:46:33.314Z,1.83
2023-04-20T05:48:59.951Z,1.47
2023-04-20T05:51:30.328Z,1.67
2023-04-20T05:53:56.947Z,1.30
2023-04-20T05:56:23.524Z,1.13
2023-04-20T05:58:50.314Z,1.50
2023-04-20T06:01:17.388Z,1.80
2023-04-20T06:03:44.213Z,1.60
2023-04-20T06:06:10.971Z,1.67
2023-04-20T06:08:37.541Z,1.37
2023-04-20T06:11:04.812Z,1.50
2023-04-20T06:13:31.455Z,1.63
2023-04-20T06:15:58.087Z,1.10
2023-04-20T06:18:24.727Z,1.27
2023-04-20T06:20:51.311Z,1.60
2023-04-20T06:23:17.921Z,1.50
2023-04-20T06:25:44.518Z,1.47
2023-04-20T06:28:11.231Z,1.70
2023-04-20T06:30:37.858Z,1.80
2023-04-20T06:33:04.506Z,1.53
2023-04-20T06:35:31.083Z,2.10
2023-04-20T06:37:57.868Z,1.03
2023-04-20T06:40:28.323Z,1.47
2023-04-20T06:42:55.030Z,2.03
2023-04-20T06:45:21.604Z,1.50
2023-04-20T06:47:48.578Z,1.53
2023-04-20T06:50:15.342Z,1.70
2023-04-20T06:52:42.382Z,1.60
2023-04-20T06:55:09.444Z,1.67
2023-04-20T06:57:38.379Z,1.93
2023-04-20T07:00:08.977Z,1.67
2023-04-20T07:02:49.964Z,1.70
2023-04-20T07:05:17.785Z,1.47
2023-04-20T07:07:45.382Z,1.70
2023-04-20T07:10:13.487Z,1.77
2023-04-20T07:12:43.143Z,1.57
2023-04-20T07:15:10.819Z,1.50
2023-04-20T07:17:37.487Z,1.80
2023-04-20T07:20:08.491Z,1.73
2023-04-20T07:22:36.829Z,1.50
2023-04-20T07:25:08.306Z,2.23
2023-04-20T07:27:37.109Z,2.23
2023-04-20T07:30:06.049Z,2.00
2023-04-20T07:32:33.849Z,1.77
2023-04-20T07:35:00.781Z,1.93
2023-04-20T07:37:28.438Z,2.17
2023-04-20T07:39:55.283Z,2.40
2023-04-20T07:42:21.955Z,2.17
2023-04-20T07:44:48.859Z,2.17
2023-04-20T07:47:15.576Z,2.60
2023-04-20T07:49:43.290Z,2.30
2023-04-20T07:52:16.490Z,2.37
2023-04-20T07:54:46.898Z,2.30
2023-04-20T07:57:13.626Z,1.87
2023-04-20T07:59:40.739Z,2.37
2023-04-20T08:02:08.272Z,2.50
2023-04-20T08:04:37.642Z,2.43
2023-04-20T08:07:04.716Z,2.00
2023-04-20T08:09:31.296Z,2.43
2023-04-20T08:11:57.916Z,2.60
2023-04-20T08:14:24.506Z,2.50
2023-04-20T08:16:51.467Z,2.27
2023-04-20T08:19:18.332Z,2.77
2023-04-20T08:21:45.109Z,2.60
2023-04-20T08:24:13.147Z,1.93
2023-04-20T08:26:39.827Z,2.90
2023-04-20T08:29:06.784Z,2.83
2023-04-20T08:31:33.539Z,2.53
2023-04-20T08:34:00.296Z,2.67
2023-04-20T08:36:27.898Z,2.97
2023-04-20T08:39:05.528Z,3.07
2023-04-20T08:41:32.292Z,2.40
2023-04-20T08:43:59.060Z,2.13
2023-04-20T08:46:25.990Z,3.00
2023-04-20T08:48:55.647Z,2.27
2023-04-20T08:51:22.631Z,2.57
2023-04-20T08:53:49.682Z,2.63
2023-04-20T08:56:16.338Z,2.83
2023-04-20T08:58:42.924Z,2.50
2023-04-20T09:01:12.705Z,2.97
2023-04-20T09:03:42.591Z,2.93
2023-04-20T09:06:17.300Z,2.47
2023-04-20T09:08:45.331Z,3.00
2023-04-20T09:11:25.688Z,2.97
2023-04-20T09:14:04.466Z,2.70
2023-04-20T09:16:31.487Z,4.30
2023-04-20T09:18:58.587Z,3.50
2023-04-20T09:21:28.169Z,2.87
2023-04-20T09:24:06.565Z,3.93
2023-04-20T09:26:34.437Z,3.30
2023-04-20T09:29:15.831Z,2.70
2023-04-20T09:31:42.537Z,3.20
2023-04-20T09:34:09.105Z,3.13
2023-04-20T09:36:44.224Z,3.10
2023-04-20T09:39:20.041Z,2.67
2023-04-20T09:41:47.784Z,3.57
2023-04-20T09:44:16.347Z,3.90
2023-04-20T09:46:43.915Z,3.97
2023-04-20T09:49:14.811Z,2.87
2023-04-20T09:51:46.428Z,4.75
2023-04-20T09:54:14.093Z,3.43
2023-04-20T09:56:41.058Z,3.70
2023-04-20T09:59:08.319Z,3.10
2023-04-20T10:01:36.123Z,3.97
2023-04-20T10:04:07.285Z,2.87
2023-04-20T10:06:35.784Z,3.00
2023-04-20T10:09:04.893Z,3.60
2023-04-20T10:11:48.810Z,3.57
2023-04-20T10:14:24.551Z,3.30
2023-04-20T10:17:01.450Z,5.07
2023-04-20T10:19:47.280Z,4.17
2023-04-20T10:22:32.763Z,3.77
2023-04-20T10:25:00.752Z,3.83
2023-04-20T10:27:27.951Z,3.20
2023-04-20T10:29:54.605Z,3.40
2023-04-20T10:32:23.194Z,4.30
2023-04-20T10:35:07.450Z,3.57
2023-04-20T10:37:34.847Z,5.40
2023-04-20T10:40:01.736Z,3.97
2023-04-20T10:42:29.429Z,3.93
2023-04-20T10:44:56.194Z,3.97
2023-04-20T10:47:31.342Z,3.43
2023-04-20T10:50:11.025Z,3.93
2023-04-20T10:52:39.751Z,3.33
2023-04-20T10:55:17.552Z,4.50
2023-04-20T10:57:47.883Z,5.50
2023-04-20T11:00:26.279Z,4.27
2023-04-20T11:02:54.414Z,4.43
2023-04-20T11:05:23.084Z,3.97
2023-04-20T11:07:56.266Z,3.70
2023-04-20T11:10:44.339Z,3.50
2023-04-20T11:13:22.287Z,3.43
2023-04-20T11:15:49.112Z,4.10
2023-04-20T11:18:15.767Z,4.30
2023-04-20T11:20:55.923Z,3.47
2023-04-20T11:23:24.082Z,4.00
2023-04-20T11:25:55.779Z,3.93
2023-04-20T11:28:23.019Z,4.10
2023-04-20T11:30:50.827Z,3.77
2023-04-20T11:33:31.445Z,3.97
2023-04-20T11:35:58.688Z,3.77
2023-04-20T11:38:32.974Z,3.20
2023-04-20T11:41:04.447Z,3.93
2023-04-20T11:43:32.172Z,3.60
2023-04-20T11:45:59.849Z,4.10
2023-04-20T11:48:27.484Z,3.73
2023-04-20T11:50:54.095Z,3.60
2023-04-20T11:53:20.977Z,3.20
2023-04-20T11:55:47.635Z,3.37
2023-04-20T11:58:14.231Z,2.90
2023-04-20T12:00:40.983Z,3.17
2023-04-20T12:03:07.835Z,3.88
2023-04-20T12:05:34.502Z,3.40
2023-04-20T12:08:01.176Z,3.63
2023-04-20T12:10:27.994Z,2.80
2023-04-20T12:12:54.779Z,3.27
2023-04-20T12:15:21.353Z,3.13
2023-04-20T12:17:48.054Z,3.27
2023-04-20T12:20:15.044Z,3.37
2023-04-20T12:22:41.625Z,3.60
2023-04-20T12:25:08.562Z,3.37
2023-04-20T12:27:35.258Z,2.93
2023-04-20T12:30:01.830Z,3.17
2023-04-20T12:32:28.752Z,3.13
2023-04-20T12:34:55.885Z,3.42
2023-04-20T12:37:22.515Z,3.33
2023-04-20T12:39:49.098Z,3.28
2023-04-20T12:42:15.875Z,3.38
2023-04-20T12:44:42.430Z,3.90
2023-04-20T12:47:09.143Z,3.43
2023-04-20T12:49:35.817Z,3.70
2023-04-20T12:52:02.389Z,4.13
2023-04-20T12:54:28.927Z,3.40
2023-04-20T12:56:55.682Z,3.43
2023-04-20T12:59:22.301Z,3.57
2023-04-20T13:01:48.967Z,3.20
2023-04-20T13:04:16.126Z,3.27
2023-04-20T13:06:43.211Z,3.20
2023-04-20T13:09:09.770Z,3.23
2023-04-20T13:11:36.384Z,3.50
2023-04-20T13:14:03.596Z,3.70
2023-04-20T13:16:30.330Z,3.40
2023-04-20T13:18:57.168Z,3.53
2023-04-20T13:21:23.761Z,3.53
2023-04-20T13:23:51.138Z,3.17
2023-04-20T13:26:17.800Z,3.40
2023-04-20T13:28:44.746Z,3.40
2023-04-20T13:31:11.665Z,3.33
2023-04-20T13:33:38.226Z,3.17
2023-04-20T13:36:05.029Z,3.50
2023-04-20T13:38:31.598Z,3.10
2023-04-20T13:40:58.487Z,2.93
2023-04-20T13:43:25.659Z,3.03
2023-04-20T13:45:52.389Z,2.90
2023-04-20T13:48:18.994Z,3.03
2023-04-20T13:50:47.265Z,3.30
2023-04-20T13:53:13.853Z,3.40
2023-04-20T13:55:40.556Z,3.60
2023-04-20T13:58:07.241Z,3.40
2023-04-20T14:00:34.835Z,3.37
2023-04-20T14:03:02.150Z,4.13
2023-04-20T14:05:28.952Z,3.50
2023-04-20T14:07:55.487Z,3.40
2023-04-20T14:10:22.104Z,3.67
2023-04-20T14:12:48.684Z,3.17
2023-04-20T14:15:15.376Z,3.17
2023-04-20T14:17:42.210Z,3.20
2023-04-20T14:20:09.619Z,3.23
2023-04-20T14:22:37.302Z,3.20
2023-04-20T14:25:04.896Z,3.90
2023-04-20T14:27:31.547Z,2.87
2023-04-20T14:29:58.408Z,4.25
2023-04-20T14:32:25.122Z,2.97
2023-04-20T14:34:51.698Z,3.40
2023-04-20T14:37:18.293Z,4.15
2023-04-20T14:39:44.874Z,3.17
2023-04-20T14:42:12.392Z,3.10
2023-04-20T14:44:38.945Z,3.03
2023-04-20T14:47:05.533Z,2.83
2023-04-20T14:49:32.090Z,2.73
2023-04-20T14:51:58.641Z,3.23
2023-04-20T14:54:25.210Z,3.37
2023-04-20T14:56:52.755Z,3.30
2023-04-20T14:59:19.453Z,3.40
2023-04-20T15:01:58.662Z,3.10
2023-04-20T15:04:28.775Z,4.07
2023-04-20T15:06:55.583Z,4.25
2023-04-20T15:09:22.178Z,3.47
2023-04-20T15:11:48.741Z,2.97
2023-04-20T15:14:15.506Z,2.87
2023-04-20T15:16:42.414Z,2.67
2023-04-20T15:19:09.098Z,3.10
2023-04-20T15:21:35.878Z,3.13
2023-04-20T15:24:02.447Z,3.00
2023-04-20T15:26:29.106Z,3.30
2023-04-20T15:28:57.384Z,3.00
2023-04-20T15:31:24.019Z,2.97
2023-04-20T15:33:50.676Z,2.90
2023-04-20T15:36:19.259Z,2.60
2023-04-20T15:38:46.178Z,3.27
2023-04-20T15:41:12.738Z,2.80
2023-04-20T15:43:39.361Z,3.47
2023-04-20T15:46:06.172Z,2.90
2023-04-20T15:48:32.839Z,2.90
2023-04-20T15:50:59.650Z,2.63
2023-04-20T15:53:26.690Z,2.47
2023-04-20T15:55:53.365Z,3.07
2023-04-20T15:58:19.984Z,3.03
2023-04-20T16:00:46.550Z,3.03
2023-04-20T16:03:13.278Z,2.60
2023-04-20T16:05:40.136Z,2.90
2023-04-20T16:08:06.725Z,2.30
2023-04-20T16:10:33.344Z,3.30
2023-04-20T16:13:00.141Z,3.33
2023-04-20T16:15:26.807Z,3.10
2023-04-20T16:17:54.099Z,3.10
2023-04-20T16:20:20.961Z,3.53
2023-04-20T16:22:47.560Z,4.30
2023-04-20T16:25:22.293Z,3.60
2023-04-20T16:27:51.259Z,3.40
2023-04-20T16:30:18.145Z,3.90
2023-04-20T16:32:44.791Z,3.67
2023-04-20T16:35:11.927Z,3.60
2023-04-20T16:37:38.487Z,3.73
2023-04-20T16:40:05.545Z,4.20
2023-04-20T16:42:32.264Z,3.87
2023-04-20T16:44:58.935Z,4.47
2023-04-20T16:47:25.781Z,5.10
2023-04-20T16:49:52.438Z,4.80
2023-04-20T16:52:18.991Z,4.63
2023-04-20T16:54:45.874Z,4.68
2023-04-20T16:57:12.447Z,3.73
2023-04-20T16:59:39.013Z,4.07
2023-04-20T17:02:05.993Z,4.20
2023-04-20T17:04:32.788Z,3.67
2023-04-20T17:06:59.472Z,4.30
2023-04-20T17:09:26.025Z,3.90
2023-04-20T17:11:52.967Z,4.10
2023-04-20T17:14:19.784Z,3.73
2023-04-20T17:16:47.257Z,4.10
2023-04-20T17:19:14.124Z,4.20
2023-04-20T17:21:40.867Z,4.23
2023-04-20T17:24:07.469Z,4.40
2023-04-20T17:26:34.170Z,6.43
2023-04-20T17:29:01.095Z,5.27
2023-04-20T17:31:27.748Z,4.47
2023-04-20T17:33:55.632Z,4.43
2023-04-20T17:36:22.207Z,4.30
2023-04-20T17:38:48.781Z,4.80
2023-04-20T17:41:15.513Z,4.03
2023-04-20T17:43:42.226Z,4.40
2023-04-20T17:46:09.104Z,4.93
2023-04-20T17:48:36.107Z,4.90
2023-04-20T17:51:02.906Z,7.80
2023-04-20T17:53:29.701Z,5.27
2023-04-20T17:55:56.275Z,5.00
2023-04-20T17:58:24.711Z,4.40
2023-04-20T18:00:51.334Z,4.63
2023-04-20T18:03:19.731Z,4.73
2023-04-20T18:05:46.834Z,5.03
2023-04-20T18:08:13.990Z,4.43
2023-04-20T18:10:40.749Z,4.60
2023-04-20T18:13:07.325Z,4.70
2023-04-20T18:15:33.955Z,4.90
2023-04-20T18:18:00.597Z,5.00
2023-04-20T18:20:27.201Z,4.33
2023-04-20T18:22:55.559Z,4.33
2023-04-20T18:25:22.244Z,5.70
2023-04-20T18:27:48.976Z,5.40
2023-04-20T18:30:16.092Z,5.37
2023-04-20T18:32:43.054Z,4.67
2023-04-20T18:35:11.311Z,4.30
2023-04-20T18:37:38.189Z,4.60
2023-04-20T18:40:07.091Z,5.30
2023-04-20T18:42:33.652Z,4.03
2023-04-20T18:45:00.314Z,4.57
2023-04-20T18:47:27.338Z,4.33
2023-04-20T18:49:54.045Z,5.23
2023-04-20T18:52:20.962Z,4.87
2023-04-20T18:54:47.567Z,4.97
2023-04-20T18:57:14.766Z,4.97
2023-04-20T18:59:41.422Z,5.47
2023-04-20T19:02:10.006Z,4.63
2023-04-20T19:04:36.741Z,5.00
2023-04-20T19:07:03.367Z,5.23
2023-04-20T19:09:29.980Z,5.27
2023-04-20T19:11:57.039Z,5.60
2023-04-20T19:14:23.888Z,5.07
2023-04-20T19:16:50.499Z,4.97
2023-04-20T19:19:17.301Z,4.93
2023-04-20T19:21:43.863Z,5.50
2023-04-20T19:24:10.520Z,5.13
2023-04-20T19:26:37.094Z,4.50
2023-04-20T19:29:03.703Z,5.80
2023-04-20T19:31:36.591Z,4.93
2023-04-20T19:34:04.472Z,5.63
2023-04-20T19:36:32.033Z,5.00
2023-04-20T19:38:59.303Z,4.47
2023-04-20T19:41:26.476Z,5.27
2023-04-20T19:43:53.372Z,5.73
2023-04-20T19:46:21.276Z,5.07
2023-04-20T19:48:48.006Z,5.60
2023-04-20T19:51:14.576Z,5.43
2023-04-20T19:53:41.847Z,5.63
2023-04-20T19:56:08.462Z,5.47
2023-04-20T19:58:35.064Z,5.30
2023-04-20T20:01:02.027Z,5.53
2023-04-20T20:03:28.871Z,4.70
2023-04-20T20:05:55.882Z,4.43
2023-04-20T20:08:22.501Z,5.27
2023-04-20T20:10:49.154Z,5.17
2023-04-20T20:13:15.904Z,5.50
2023-04-20T20:15:42.649Z,5.60
2023-04-20T20:18:10.521Z,5.63
2023-04-20T20:20:37.749Z,5.43
2023-04-20T20:23:04.712Z,4.90
2023-04-20T20:25:32.360Z,5.97
2023-04-20T20:27:59.962Z,5.00
2023-04-20T20:30:26.624Z,4.83
2023-04-20T20:32:53.384Z,5.83
2023-04-20T20:35:20.883Z,5.60
2023-04-20T20:37:47.589Z,5.57
2023-04-20T20:40:15.507Z,5.40
2023-04-20T20:42:42.534Z,5.93
2023-04-20T20:45:12.752Z,5.83
2023-04-20T20:47:41.062Z,5.30
2023-04-20T20:50:08.882Z,6.37
2023-04-20T20:52:35.579Z,6.23
2023-04-20T20:55:02.231Z,5.60
2023-04-20T20:57:28.855Z,5.80
2023-04-20T20:59:55.559Z,6.90
2023-04-20T21:02:22.523Z,6.43
2023-04-20T21:04:49.259Z,6.07
2023-04-20T21:07:15.934Z,6.37
2023-04-20T21:09:42.542Z,6.03
2023-04-20T21:12:09.169Z,6.23
2023-04-20T21:14:37.150Z,5.47
2023-04-20T21:17:04.710Z,6.57
2023-04-20T21:19:31.729Z,6.17
2023-04-20T21:21:58.466Z,6.50
2023-04-20T21:24:25.092Z,6.00
2023-04-20T21:26:52.502Z,6.93
2023-04-20T21:29:19.510Z,5.67
2023-04-20T21:31:46.432Z,5.87
2023-04-20T21:34:13.212Z,5.93
2023-04-20T21:36:39.821Z,6.30
2023-04-20T21:39:06.489Z,5.73
2023-04-20T21:41:33.077Z,5.63
2023-04-20T21:44:00.487Z,5.33
2023-04-20T21:46:27.124Z,5.97
2023-04-20T21:48:53.820Z,5.43
2023-04-20T21:51:20.602Z,6.23
2023-04-20T21:53:47.264Z,5.90
2023-04-20T21:56:14.810Z,5.70
2023-04-20T21:58:41.558Z,6.10
2023-04-20T22:01:08.452Z,6.40
2023-04-20T22:03:36.631Z,5.90
2023-04-20T22:06:04.340Z,5.57
2023-04-20T22:08:30.984Z,6.13
2023-04-20T22:10:57.593Z,5.50
2023-04-20T22:13:24.222Z,5.83
2023-04-20T22:15:51.591Z,6.23
2023-04-20T22:18:18.944Z,6.07
2023-04-20T22:20:46.046Z,5.90
2023-04-20T22:23:12.612Z,5.70
2023-04-20T22:25:40.423Z,6.57
2023-04-20T22:28:07.115Z,6.03
2023-04-20T22:30:33.724Z,5.23
2023-04-20T22:33:00.430Z,5.20
2023-04-20T22:35:27.131Z,6.03
2023-04-20T22:37:53.844Z,5.97
2023-04-20T22:40:20.484Z,5.57
2023-04-20T22:42:47.095Z,5.60
2023-04-20T22:45:13.710Z,6.13
2023-04-20T22:47:40.521Z,6.33
2023-04-20T22:50:09.429Z,6.20
2023-04-20T22:52:38.383Z,5.23
2023-04-20T22:55:09.312Z,5.50
2023-04-20T22:57:36.369Z,5.63
2023-04-20T23:00:07.675Z,5.07
2023-04-20T23:02:34.372Z,4.83
2023-04-20T23:05:01.396Z,4.93
2023-04-20T23:07:27.982Z,4.83
2023-04-20T23:09:56.283Z,5.30
2023-04-20T23:12:23.211Z,5.43
2023-04-20T23:14:50.608Z,5.10
2023-04-20T23:17:17.240Z,5.03
2023-04-20T23:19:43.845Z,5.07
2023-04-20T23:22:10.473Z,6.17
2023-04-20T23:24:37.105Z,5.07
2023-04-20T23:27:03.791Z,5.23
2023-04-20T23:29:30.586Z,4.83
2023-04-20T23:31:57.192Z,5.40
2023-04-20T23:34:23.824Z,5.40
2023-04-20T23:36:51.508Z,5.23
2023-04-20T23:39:18.316Z,5.67
2023-04-20T23:41:46.831Z,5.40
2023-04-20T23:44:13.422Z,4.77
2023-04-20T23:46:40.131Z,5.23
2023-04-20T23:49:06.814Z,5.23
2023-04-20T23:51:33.422Z,4.90
2023-04-20T23:53:59.979Z,5.03
2023-04-20T23:56:26.595Z,4.40
2023-04-20T23:58:53.202Z,4.43
